createdAt,value
2023-04-15T00:00:23.465Z,5.69
2023-04-15T00:01:10.420Z,5.70
2023-04-15T00:02:00.224Z,5.67
2023-04-15T00:02:47.359Z,5.69
2023-04-15T00:03:35.170Z,5.65
2023-04-15T00:04:22.429Z,5.67
2023-04-15T00:05:09.663Z,5.70
2023-04-15T00:05:58.344Z,5.72
2023-04-15T00:06:53.922Z,5.64
2023-04-15T00:07:41.627Z,5.67
2023-04-15T00:08:30.347Z,5.61
2023-04-15T00:09:17.383Z,5.55
2023-04-15T00:10:05.722Z,5.64
2023-04-15T00:10:53.265Z,5.64
2023-04-15T00:11:40.270Z,5.67
2023-04-15T00:12:28.262Z,5.69
2023-04-15T00:13:15.651Z,5.71
2023-04-15T00:14:02.687Z,5.59
2023-04-15T00:14:50.380Z,5.53
2023-04-15T00:15:37.930Z,5.58
2023-04-15T00:16:25.002Z,5.58
2023-04-15T00:17:12.244Z,5.49
2023-04-15T00:17:59.244Z,5.51
2023-04-15T00:18:46.672Z,5.51
2023-04-15T00:19:33.624Z,5.56
2023-04-15T00:20:21.205Z,5.59
2023-04-15T00:21:08.218Z,5.48
2023-04-15T00:21:55.373Z,5.33
2023-04-15T00:22:42.390Z,5.22
2023-04-15T00:23:29.432Z,5.28
2023-04-15T00:24:17.531Z,5.17
2023-04-15T00:25:04.719Z,5.23
2023-04-15T00:25:52.262Z,5.30
2023-04-15T00:26:39.692Z,5.26
2023-04-15T00:27:26.722Z,5.24
2023-04-15T00:28:14.206Z,5.34
2023-04-15T00:29:01.592Z,5.37
2023-04-15T00:29:48.772Z,5.35
2023-04-15T00:30:35.835Z,5.37
2023-04-15T00:31:23.410Z,5.42
2023-04-15T00:32:10.639Z,5.20
2023-04-15T00:32:57.604Z,5.16
2023-04-15T00:33:45.000Z,5.22
2023-04-15T00:34:31.912Z,5.31
2023-04-15T00:35:19.165Z,5.36
2023-04-15T00:36:07.512Z,5.29
2023-04-15T00:36:54.738Z,5.18
2023-04-15T00:37:41.582Z,5.23
2023-04-15T00:38:29.014Z,5.11
2023-04-15T00:39:16.667Z,5.11
2023-04-15T00:40:06.685Z,5.25
2023-04-15T00:40:53.713Z,5.37
2023-04-15T00:41:40.732Z,5.48
2023-04-15T00:42:28.313Z,5.53
2023-04-15T00:43:16.684Z,5.45
2023-04-15T00:44:03.843Z,5.42
2023-04-15T00:44:50.887Z,5.39
2023-04-15T00:45:37.886Z,5.37
2023-04-15T00:46:26.328Z,5.43
2023-04-15T00:47:14.006Z,5.48
2023-04-15T00:48:01.120Z,5.47
2023-04-15T00:48:48.195Z,5.41
2023-04-15T00:49:35.384Z,5.18
2023-04-15T00:50:22.805Z,5.28
2023-04-15T00:51:09.942Z,5.36
2023-04-15T00:51:57.370Z,5.40
2023-04-15T00:52:44.494Z,5.35
2023-04-15T00:53:31.577Z,5.38
2023-04-15T00:54:18.594Z,5.44
2023-04-15T00:55:06.770Z,5.44
2023-04-15T00:55:54.630Z,5.36
2023-04-15T00:56:42.361Z,5.30
2023-04-15T00:57:29.644Z,5.36
2023-04-15T00:58:16.985Z,5.34
2023-04-15T00:59:04.816Z,5.38
2023-04-15T00:59:52.898Z,5.38
2023-04-15T01:00:41.251Z,5.38
2023-04-15T01:01:29.083Z,5.35
2023-04-15T01:02:16.688Z,5.43
2023-04-15T01:03:04.152Z,5.33
2023-04-15T01:03:52.017Z,5.28
2023-04-15T01:04:39.155Z,5.32
2023-04-15T01:05:27.382Z,5.44
2023-04-15T01:06:14.726Z,5.56
2023-04-15T01:07:01.713Z,5.59
2023-04-15T01:07:49.177Z,5.58
2023-04-15T01:08:36.612Z,5.55
2023-04-15T01:09:23.652Z,5.59
2023-04-15T01:10:10.968Z,5.57
2023-04-15T01:10:59.620Z,5.48
2023-04-15T01:11:46.627Z,5.45
2023-04-15T01:12:34.614Z,5.42
2023-04-15T01:13:22.514Z,5.37
2023-04-15T01:14:10.492Z,5.36
2023-04-15T01:14:57.647Z,5.51
2023-04-15T01:15:44.824Z,5.51
2023-04-15T01:16:32.561Z,5.51
2023-04-15T01:17:20.199Z,5.58
2023-04-15T01:18:07.741Z,5.66
2023-04-15T01:18:55.413Z,5.67
2023-04-15T01:19:42.553Z,5.70
2023-04-15T01:20:30.017Z,5.68
2023-04-15T01:21:17.147Z,5.57
2023-04-15T01:22:05.625Z,5.57
2023-04-15T01:22:52.962Z,5.59
2023-04-15T01:23:40.060Z,5.66
2023-04-15T01:24:28.455Z,5.70
2023-04-15T01:25:20.029Z,5.73
2023-04-15T01:26:09.255Z,5.73
2023-04-15T01:26:56.193Z,5.68
2023-04-15T01:27:43.894Z,5.77
2023-04-15T01:28:33.852Z,5.79
2023-04-15T01:29:20.911Z,5.60
2023-04-15T01:30:08.816Z,5.64
2023-04-15T01:31:11.994Z,5.73
2023-04-15T01:31:59.343Z,5.73
2023-04-15T01:32:46.411Z,5.62
2023-04-15T01:33:33.763Z,5.61
2023-04-15T01:34:21.252Z,5.56
2023-04-15T01:35:09.097Z,5.62
2023-04-15T01:35:56.097Z,5.61
2023-04-15T01:36:43.267Z,5.61
2023-04-15T01:37:30.426Z,5.56
2023-04-15T01:38:17.483Z,5.54
2023-04-15T01:39:05.772Z,5.58
2023-04-15T01:39:52.861Z,5.56
2023-04-15T01:40:41.143Z,5.63
2023-04-15T01:41:28.673Z,5.63
2023-04-15T01:42:16.062Z,5.62
2023-04-15T01:43:04.052Z,5.62
2023-04-15T01:43:51.532Z,5.60
2023-04-15T01:44:38.435Z,5.65
2023-04-15T01:45:26.032Z,5.69
2023-04-15T01:46:13.008Z,5.65
2023-04-15T01:47:01.075Z,5.64
2023-04-15T01:47:48.195Z,5.68
2023-04-15T01:48:35.216Z,5.72
2023-04-15T01:49:22.753Z,5.71
2023-04-15T01:50:10.179Z,5.74
2023-04-15T01:50:58.419Z,5.70
2023-04-15T01:51:45.838Z,5.73
2023-04-15T01:52:32.979Z,5.66
2023-04-15T01:53:20.896Z,5.68
2023-04-15T01:54:08.110Z,5.63
2023-04-15T01:54:55.070Z,5.72
2023-04-15T01:55:42.100Z,5.60
2023-04-15T01:56:29.168Z,5.53
2023-04-15T01:57:16.139Z,5.58
2023-04-15T01:58:03.576Z,5.68
2023-04-15T01:58:50.709Z,5.76
2023-04-15T01:59:37.756Z,5.83
2023-04-15T02:00:25.217Z,5.84
2023-04-15T02:01:13.449Z,5.83
2023-04-15T02:02:00.819Z,5.85
2023-04-15T02:02:47.797Z,5.76
2023-04-15T02:03:35.240Z,5.68
2023-04-15T02:04:22.368Z,5.69
2023-04-15T02:05:09.947Z,5.56
2023-04-15T02:05:57.179Z,5.63
2023-04-15T02:06:44.596Z,5.67
2023-04-15T02:07:32.657Z,5.54
2023-04-15T02:08:19.690Z,5.57
2023-04-15T02:09:06.710Z,5.56
2023-04-15T02:09:53.619Z,5.59
2023-04-15T02:10:40.589Z,5.59
2023-04-15T02:11:27.620Z,5.47
2023-04-15T02:12:14.619Z,5.49
2023-04-15T02:13:02.129Z,5.47
2023-04-15T02:13:49.254Z,5.46
2023-04-15T02:14:36.219Z,5.56
2023-04-15T02:15:23.293Z,5.63
2023-04-15T02:16:20.159Z,5.56
2023-04-15T02:17:08.590Z,5.44
2023-04-15T02:17:55.909Z,5.37
2023-04-15T02:18:43.641Z,5.38
2023-04-15T02:19:30.643Z,5.40
2023-04-15T02:20:21.620Z,5.42
2023-04-15T02:21:09.169Z,5.44
2023-04-15T02:21:56.290Z,5.44
2023-04-15T02:22:43.309Z,5.44
2023-04-15T02:23:30.329Z,5.50
2023-04-15T02:24:17.290Z,5.52
2023-04-15T02:25:04.675Z,5.46
2023-04-15T02:25:53.251Z,5.52
2023-04-15T02:26:41.303Z,5.56
2023-04-15T02:27:29.192Z,5.59
2023-04-15T02:28:16.180Z,5.55
2023-04-15T02:29:03.177Z,5.51
2023-04-15T02:29:51.562Z,5.55
2023-04-15T02:30:38.723Z,5.51
2023-04-15T02:31:26.514Z,5.55
2023-04-15T02:32:14.285Z,5.48
2023-04-15T02:33:02.283Z,5.51
2023-04-15T02:33:49.664Z,5.49
2023-04-15T02:34:37.937Z,5.50
2023-04-15T02:35:26.150Z,5.59
2023-04-15T02:36:13.216Z,5.52
2023-04-15T02:37:00.165Z,5.47
2023-04-15T02:37:47.242Z,5.45
2023-04-15T02:38:34.228Z,5.35
2023-04-15T02:39:21.145Z,5.32
2023-04-15T02:40:12.632Z,5.35
2023-04-15T02:40:59.898Z,5.48
2023-04-15T02:41:52.127Z,5.53
2023-04-15T02:42:40.457Z,5.55
2023-04-15T02:43:27.533Z,5.47
2023-04-15T02:44:14.385Z,5.47
2023-04-15T02:45:01.511Z,5.56
2023-04-15T02:45:48.739Z,5.53
2023-04-15T02:46:36.822Z,5.52
2023-04-15T02:47:23.954Z,5.62
2023-04-15T02:48:11.282Z,5.70
2023-04-15T02:49:00.451Z,5.70
2023-04-15T02:49:47.678Z,5.69
2023-04-15T02:50:34.601Z,5.71
2023-04-15T02:51:23.016Z,5.69
2023-04-15T02:52:10.308Z,5.73
2023-04-15T02:52:57.300Z,5.79
2023-04-15T02:53:44.240Z,5.83
2023-04-15T02:54:32.851Z,5.81
2023-04-15T02:55:19.829Z,5.87
2023-04-15T02:56:06.925Z,5.87
2023-04-15T02:56:55.619Z,5.84
2023-04-15T02:57:42.715Z,5.81
2023-04-15T02:58:29.808Z,5.83
2023-04-15T02:59:17.296Z,5.73
2023-04-15T03:00:05.697Z,5.73
2023-04-15T03:00:52.797Z,5.70
2023-04-15T03:01:39.828Z,5.70
2023-04-15T03:02:26.926Z,5.72
2023-04-15T03:03:15.536Z,5.71
2023-04-15T03:04:02.900Z,5.63
2023-04-15T03:04:50.154Z,5.66
2023-04-15T03:05:39.253Z,5.68
2023-04-15T03:06:26.628Z,5.65
2023-04-15T03:07:13.577Z,5.65
2023-04-15T03:08:01.619Z,5.63
2023-04-15T03:08:48.719Z,5.59
2023-04-15T03:09:36.603Z,5.59
2023-04-15T03:10:23.668Z,5.73
2023-04-15T03:11:10.718Z,5.65
2023-04-15T03:11:57.726Z,5.62
2023-04-15T03:12:44.709Z,5.59
2023-04-15T03:13:31.942Z,5.64
2023-04-15T03:14:18.954Z,5.67
2023-04-15T03:15:06.825Z,5.70
2023-04-15T03:15:53.995Z,5.60
2023-04-15T03:16:41.065Z,5.64
2023-04-15T03:17:28.051Z,5.55
2023-04-15T03:18:15.154Z,5.59
2023-04-15T03:19:02.286Z,5.61
2023-04-15T03:19:49.373Z,5.62
2023-04-15T03:20:36.736Z,5.65
2023-04-15T03:21:24.205Z,5.58
2023-04-15T03:22:11.303Z,5.66
2023-04-15T03:22:58.322Z,5.76
2023-04-15T03:23:45.365Z,5.80
2023-04-15T03:24:32.327Z,5.77
2023-04-15T03:25:19.330Z,5.82
2023-04-15T03:26:06.494Z,5.87
2023-04-15T03:26:53.517Z,5.93
2023-04-15T03:27:40.597Z,5.91
2023-04-15T03:28:27.637Z,5.88
2023-04-15T03:29:14.586Z,5.84
2023-04-15T03:30:01.644Z,5.75
2023-04-15T03:30:48.738Z,5.72
2023-04-15T03:31:35.957Z,5.64
2023-04-15T03:32:23.011Z,5.73
2023-04-15T03:33:09.987Z,5.86
2023-04-15T03:33:56.948Z,5.89
2023-04-15T03:34:44.438Z,5.85
2023-04-15T03:35:31.552Z,5.85
2023-04-15T03:36:18.465Z,5.79
2023-04-15T03:37:05.906Z,5.84
2023-04-15T03:37:52.836Z,5.91
2023-04-15T03:38:39.799Z,5.93
2023-04-15T03:39:27.370Z,5.87
2023-04-15T03:40:14.392Z,5.88
2023-04-15T03:41:01.609Z,5.81
2023-04-15T03:41:48.577Z,5.74
2023-04-15T03:42:35.769Z,5.73
2023-04-15T03:43:22.867Z,5.78
2023-04-15T03:44:09.847Z,5.76
2023-04-15T03:44:57.011Z,5.77
2023-04-15T03:45:44.005Z,5.79
2023-04-15T03:46:31.217Z,5.77
2023-04-15T03:47:18.220Z,5.64
2023-04-15T03:48:16.693Z,5.64
2023-04-15T03:49:05.388Z,5.62
2023-04-15T03:49:52.436Z,5.77
2023-04-15T03:50:39.438Z,5.85
2023-04-15T03:51:26.785Z,5.84
2023-04-15T03:52:13.941Z,5.77
2023-04-15T03:53:00.984Z,5.77
2023-04-15T03:53:48.018Z,5.61
2023-04-15T03:54:34.965Z,5.55
2023-04-15T03:55:21.947Z,5.59
2023-04-15T03:56:08.977Z,5.59
2023-04-15T03:56:57.053Z,5.63
2023-04-15T03:57:44.199Z,5.57
2023-04-15T03:58:31.334Z,5.55
2023-04-15T03:59:18.301Z,5.60
2023-04-15T04:00:06.782Z,5.69
2023-04-15T04:00:55.059Z,5.78
2023-04-15T04:01:42.146Z,5.73
2023-04-15T04:02:29.327Z,5.80
2023-04-15T04:03:16.863Z,5.91
2023-04-15T04:04:03.979Z,5.83
2023-04-15T04:04:51.401Z,5.79
2023-04-15T04:05:39.383Z,5.80
2023-04-15T04:06:26.960Z,5.72
2023-04-15T04:07:17.703Z,5.68
2023-04-15T04:08:05.205Z,5.63
2023-04-15T04:08:52.214Z,5.63
2023-04-15T04:09:40.917Z,5.50
2023-04-15T04:10:27.997Z,5.49
2023-04-15T04:11:15.131Z,5.54
2023-04-15T04:12:02.926Z,5.63
2023-04-15T04:12:49.894Z,5.72
2023-04-15T04:13:37.001Z,5.81
2023-04-15T04:14:29.793Z,5.90
2023-04-15T04:15:16.888Z,5.91
2023-04-15T04:16:05.167Z,5.93
2023-04-15T04:16:52.308Z,5.83
2023-04-15T04:17:39.354Z,5.73
2023-04-15T04:18:26.411Z,5.66
2023-04-15T04:19:14.974Z,5.69
2023-04-15T04:20:02.005Z,5.70
2023-04-15T04:20:49.065Z,5.63
2023-04-15T04:21:36.802Z,5.70
2023-04-15T04:22:24.751Z,5.79
2023-04-15T04:23:12.067Z,5.89
2023-04-15T04:23:59.278Z,5.90
2023-04-15T04:24:46.177Z,5.81
2023-04-15T04:25:33.366Z,5.83
2023-04-15T04:26:20.370Z,5.89
2023-04-15T04:27:07.380Z,5.91
2023-04-15T04:27:54.386Z,5.78
2023-04-15T04:28:41.481Z,5.73
2023-04-15T04:29:28.514Z,5.69
2023-04-15T04:30:15.582Z,5.80
2023-04-15T04:31:02.626Z,5.76
2023-04-15T04:31:49.794Z,5.81
2023-04-15T04:32:36.815Z,5.86
2023-04-15T04:33:23.908Z,5.83
2023-04-15T04:34:11.085Z,5.82
2023-04-15T04:34:58.102Z,5.89
2023-04-15T04:35:45.189Z,5.81
2023-04-15T04:36:32.215Z,5.77
2023-04-15T04:37:19.198Z,5.83
2023-04-15T04:38:06.302Z,5.81
2023-04-15T04:38:53.205Z,5.75
2023-04-15T04:39:40.505Z,5.82
2023-04-15T04:40:27.916Z,5.81
2023-04-15T04:41:14.976Z,5.90
2023-04-15T04:42:01.922Z,5.93
2023-04-15T04:42:48.927Z,5.95
2023-04-15T04:43:36.249Z,5.88
2023-04-15T04:44:23.211Z,5.75
2023-04-15T04:45:10.538Z,5.72
2023-04-15T04:45:57.789Z,5.81
2023-04-15T04:46:44.756Z,5.83
2023-04-15T04:47:31.954Z,5.91
2023-04-15T04:48:19.113Z,6.00
2023-04-15T04:49:06.157Z,5.93
2023-04-15T04:49:53.173Z,5.88
2023-04-15T04:50:40.202Z,6.00
2023-04-15T04:51:27.275Z,6.01
2023-04-15T04:52:14.379Z,5.99
2023-04-15T04:53:01.870Z,5.99
2023-04-15T04:53:48.958Z,6.03
2023-04-15T04:54:36.087Z,6.02
2023-04-15T04:55:23.235Z,6.05
2023-04-15T04:56:10.206Z,6.05
2023-04-15T04:56:58.132Z,6.07
2023-04-15T04:57:45.242Z,6.04
2023-04-15T04:58:32.265Z,6.07
2023-04-15T04:59:19.566Z,6.19
2023-04-15T05:00:09.095Z,6.27
2023-04-15T05:00:57.078Z,6.36
2023-04-15T05:01:44.135Z,6.23
2023-04-15T05:02:31.349Z,6.28
2023-04-15T05:03:19.098Z,6.16
2023-04-15T05:04:07.929Z,6.18
2023-04-15T05:04:55.092Z,6.07
2023-04-15T05:05:42.212Z,6.20
2023-04-15T05:06:30.812Z,6.28
2023-04-15T05:07:17.767Z,6.15
2023-04-15T05:08:04.956Z,6.21
2023-04-15T05:08:51.911Z,6.13
2023-04-15T05:09:38.865Z,6.26
2023-04-15T05:10:25.936Z,6.27
2023-04-15T05:11:13.257Z,6.33
2023-04-15T05:12:00.202Z,6.45
2023-04-15T05:12:47.285Z,6.49
2023-04-15T05:13:34.395Z,6.48
2023-04-15T05:14:22.943Z,6.41
2023-04-15T05:15:11.042Z,6.38
2023-04-15T05:15:58.046Z,6.46
2023-04-15T05:16:45.268Z,6.45
2023-04-15T05:17:33.727Z,6.49
2023-04-15T05:18:20.876Z,6.47
2023-04-15T05:19:08.215Z,6.54
2023-04-15T05:19:55.278Z,6.40
2023-04-15T05:20:42.421Z,6.51
2023-04-15T05:21:29.325Z,6.60
2023-04-15T05:22:16.249Z,6.60
2023-04-15T05:23:03.346Z,6.65
2023-04-15T05:23:50.347Z,6.63
2023-04-15T05:24:37.456Z,6.84
2023-04-15T05:25:24.356Z,6.96
2023-04-15T05:26:11.747Z,6.99
2023-04-15T05:26:58.816Z,7.09
2023-04-15T05:27:46.304Z,7.13
2023-04-15T05:28:33.330Z,7.19
2023-04-15T05:29:20.389Z,7.22
2023-04-15T05:30:07.967Z,7.24
2023-04-15T05:30:55.265Z,7.24
2023-04-15T05:31:42.519Z,7.23
2023-04-15T05:32:29.534Z,7.32
2023-04-15T05:33:16.808Z,7.39
2023-04-15T05:34:03.851Z,7.32
2023-04-15T05:34:51.270Z,7.26
2023-04-15T05:35:38.469Z,7.21
2023-04-15T05:36:26.345Z,7.18
2023-04-15T05:37:13.589Z,7.25
2023-04-15T05:38:00.967Z,7.40
2023-04-15T05:38:48.038Z,7.39
2023-04-15T05:39:34.982Z,7.47
2023-04-15T05:40:21.960Z,7.55
2023-04-15T05:41:09.478Z,7.68
2023-04-15T05:41:56.426Z,7.72
2023-04-15T05:42:43.502Z,7.74
2023-04-15T05:43:30.919Z,7.80
2023-04-15T05:44:17.971Z,7.91
2023-04-15T05:45:05.746Z,7.83
2023-04-15T05:45:52.988Z,7.67
2023-04-15T05:46:40.016Z,7.61
2023-04-15T05:47:27.746Z,7.66
2023-04-15T05:48:14.740Z,7.70
2023-04-15T05:49:02.132Z,7.84
2023-04-15T05:49:49.232Z,7.87
2023-04-15T05:50:36.468Z,7.76
2023-04-15T05:51:23.670Z,7.89
2023-04-15T05:52:10.667Z,7.91
2023-04-15T05:52:57.636Z,8.03
2023-04-15T05:53:46.190Z,8.06
2023-04-15T05:54:33.171Z,8.06
2023-04-15T05:55:20.344Z,8.09
2023-04-15T05:56:07.712Z,8.09
2023-04-15T05:56:55.030Z,7.86
2023-04-15T05:57:42.158Z,7.80
2023-04-15T05:58:29.130Z,7.88
2023-04-15T05:59:16.377Z,7.93
2023-04-15T06:00:04.046Z,8.03
2023-04-15T06:00:51.479Z,8.03
2023-04-15T06:01:38.656Z,8.01
2023-04-15T06:02:26.874Z,7.95
2023-04-15T06:03:14.055Z,7.89
2023-04-15T06:04:02.110Z,7.80
2023-04-15T06:04:49.341Z,7.77
2023-04-15T06:05:36.267Z,7.87
2023-04-15T06:06:23.332Z,7.95
2023-04-15T06:07:11.319Z,7.92
2023-04-15T06:07:58.337Z,7.97
2023-04-15T06:08:45.607Z,7.96
2023-04-15T06:09:33.015Z,7.98
2023-04-15T06:10:20.003Z,7.93
2023-04-15T06:11:06.980Z,7.88
2023-04-15T06:11:54.060Z,7.95
2023-04-15T06:12:41.306Z,7.94
2023-04-15T06:13:28.558Z,8.03
2023-04-15T06:14:15.497Z,8.02
2023-04-15T06:15:02.817Z,8.05
2023-04-15T06:15:49.978Z,8.00
2023-04-15T06:16:37.167Z,8.04
2023-04-15T06:17:24.219Z,8.01
2023-04-15T06:18:12.537Z,7.96
2023-04-15T06:18:59.718Z,8.01
2023-04-15T06:19:47.757Z,8.09
2023-04-15T06:20:35.069Z,8.11
2023-04-15T06:21:22.549Z,7.91
2023-04-15T06:22:09.657Z,7.94
2023-04-15T06:22:57.126Z,7.90
2023-04-15T06:23:45.686Z,7.96
2023-04-15T06:24:34.235Z,7.91
2023-04-15T06:25:21.229Z,8.03
2023-04-15T06:26:08.757Z,8.03
2023-04-15T06:26:56.445Z,7.98
2023-04-15T06:27:43.808Z,8.08
2023-04-15T06:28:31.515Z,8.13
2023-04-15T06:29:18.995Z,8.09
2023-04-15T06:30:06.997Z,7.89
2023-04-15T06:30:55.256Z,7.84
2023-04-15T06:31:42.411Z,7.99
2023-04-15T06:32:29.749Z,7.81
2023-04-15T06:33:16.849Z,7.70
2023-04-15T06:34:03.886Z,7.89
2023-04-15T06:34:51.095Z,7.98
2023-04-15T06:35:38.597Z,8.01
2023-04-15T06:36:25.903Z,8.10
2023-04-15T06:37:16.557Z,8.14
2023-04-15T06:38:03.732Z,8.20
2023-04-15T06:38:50.770Z,8.42
2023-04-15T06:39:38.582Z,8.64
2023-04-15T06:40:25.765Z,8.82
2023-04-15T06:41:13.167Z,8.90
2023-04-15T06:42:00.300Z,9.05
2023-04-15T06:42:47.625Z,9.09
2023-04-15T06:43:35.226Z,9.08
2023-04-15T06:44:22.456Z,8.98
2023-04-15T06:45:09.983Z,9.06
2023-04-15T06:45:57.667Z,9.01
2023-04-15T06:46:45.814Z,9.26
2023-04-15T06:47:33.070Z,9.61
2023-04-15T06:48:20.115Z,9.75
2023-04-15T06:49:07.206Z,9.88
2023-04-15T06:49:54.154Z,9.81
2023-04-15T06:50:41.695Z,9.81
2023-04-15T06:51:29.120Z,9.98
2023-04-15T06:52:17.004Z,10.10
2023-04-15T06:53:04.193Z,9.91
2023-04-15T06:53:51.172Z,9.69
2023-04-15T06:54:38.334Z,9.55
2023-04-15T06:55:25.565Z,9.94
2023-04-15T06:56:12.675Z,10.10
2023-04-15T06:56:59.824Z,10.18
2023-04-15T06:57:46.837Z,10.24
2023-04-15T06:58:34.183Z,10.22
2023-04-15T06:59:21.397Z,10.40
2023-04-15T07:00:11.606Z,10.59
2023-04-15T07:00:59.037Z,10.62
2023-04-15T07:01:46.355Z,10.60
2023-04-15T07:02:42.754Z,10.73
2023-04-15T07:03:32.616Z,10.82
2023-04-15T07:04:20.670Z,10.48
2023-04-15T07:05:08.532Z,10.60
2023-04-15T07:05:55.361Z,10.60
2023-04-15T07:06:42.303Z,10.70
2023-04-15T07:07:29.237Z,10.76
2023-04-15T07:08:16.067Z,10.88
2023-04-15T07:09:04.348Z,10.93
2023-04-15T07:09:54.327Z,10.72
2023-04-15T07:10:42.398Z,10.61
2023-04-15T07:11:29.689Z,10.19
2023-04-15T07:12:17.149Z,10.38
2023-04-15T07:13:04.981Z,10.55
2023-04-15T07:13:52.495Z,10.72
2023-04-15T07:14:39.483Z,10.90
2023-04-15T07:15:26.930Z,10.99
2023-04-15T07:16:13.997Z,11.11
2023-04-15T07:17:01.321Z,10.88
2023-04-15T07:17:48.575Z,10.95
2023-04-15T07:18:35.706Z,11.10
2023-04-15T07:19:23.755Z,10.97
2023-04-15T07:20:11.675Z,10.96
2023-04-15T07:20:59.031Z,10.95
2023-04-15T07:21:49.146Z,10.88
2023-04-15T07:22:37.170Z,10.86
2023-04-15T07:23:24.580Z,10.58
2023-04-15T07:24:12.220Z,10.50
2023-04-15T07:25:00.351Z,10.48
2023-04-15T07:25:47.838Z,10.66
2023-04-15T07:26:34.741Z,10.83
2023-04-15T07:27:23.058Z,10.87
2023-04-15T07:28:10.365Z,10.86
2023-04-15T07:28:58.445Z,10.37
2023-04-15T07:29:47.336Z,10.09
2023-04-15T07:30:35.042Z,10.27
2023-04-15T07:31:24.626Z,10.14
2023-04-15T07:32:12.614Z,10.21
2023-04-15T07:32:59.809Z,10.63
2023-04-15T07:33:47.541Z,10.65
2023-04-15T07:34:37.264Z,10.56
2023-04-15T07:35:26.047Z,10.49
2023-04-15T07:36:13.895Z,10.59
2023-04-15T07:37:02.937Z,10.83
2023-04-15T07:37:50.563Z,11.01
2023-04-15T07:38:37.905Z,10.98
2023-04-15T07:39:27.253Z,10.86
2023-04-15T07:40:14.966Z,10.95
2023-04-15T07:41:02.279Z,10.99
2023-04-15T07:41:51.745Z,10.99
2023-04-15T07:42:41.390Z,10.64
2023-04-15T07:43:29.534Z,10.79
2023-04-15T07:44:17.953Z,10.62
2023-04-15T07:45:05.754Z,10.71
2023-04-15T07:45:53.339Z,10.85
2023-04-15T07:46:40.810Z,10.93
2023-04-15T07:47:28.022Z,10.96
2023-04-15T07:48:15.823Z,11.04
2023-04-15T07:49:03.210Z,10.85
2023-04-15T07:49:51.773Z,10.96
2023-04-15T07:50:39.514Z,10.63
2023-04-15T07:51:29.825Z,10.79
2023-04-15T07:52:17.206Z,10.97
2023-04-15T07:53:04.633Z,10.85
2023-04-15T07:53:52.057Z,10.93
2023-04-15T07:54:39.216Z,10.86
2023-04-15T07:55:28.218Z,10.87
2023-04-15T07:56:16.727Z,10.85
2023-04-15T07:57:06.649Z,10.72
2023-04-15T07:57:54.108Z,10.78
2023-04-15T07:58:41.989Z,10.94
2023-04-15T07:59:32.283Z,10.88
2023-04-15T08:00:20.908Z,10.79
2023-04-15T08:01:08.397Z,10.95
2023-04-15T08:01:55.871Z,11.21
2023-04-15T08:02:43.699Z,11.32
2023-04-15T08:03:32.746Z,11.45
2023-04-15T08:04:21.692Z,11.65
2023-04-15T08:05:09.840Z,11.43
2023-04-15T08:05:57.323Z,11.52
2023-04-15T08:06:44.428Z,11.82
2023-04-15T08:07:32.811Z,11.82
2023-04-15T08:08:19.627Z,11.90
2023-04-15T08:09:07.366Z,11.84
2023-04-15T08:09:54.431Z,11.94
2023-04-15T08:10:42.032Z,11.85
2023-04-15T08:11:30.247Z,11.94
2023-04-15T08:12:18.790Z,12.14
2023-04-15T08:13:05.675Z,12.19
2023-04-15T08:13:53.157Z,12.31
2023-04-15T08:14:41.225Z,12.09
2023-04-15T08:15:29.387Z,11.90
2023-04-15T08:16:28.715Z,11.70
2023-04-15T08:17:17.328Z,11.47
2023-04-15T08:18:05.084Z,11.31
2023-04-15T08:18:54.193Z,11.51
2023-04-15T08:19:42.760Z,11.71
2023-04-15T08:20:30.188Z,11.95
2023-04-15T08:21:20.026Z,11.89
2023-04-15T08:22:10.881Z,11.93
2023-04-15T08:23:05.068Z,11.92
2023-04-15T08:23:53.878Z,11.88
2023-04-15T08:24:40.784Z,11.69
2023-04-15T08:25:27.965Z,11.49
2023-04-15T08:26:15.727Z,11.58
2023-04-15T08:27:05.006Z,11.72
2023-04-15T08:28:49.692Z,11.57
2023-04-15T08:29:37.212Z,11.31
2023-04-15T08:30:24.459Z,11.59
2023-04-15T08:31:12.537Z,11.51
2023-04-15T08:32:02.614Z,11.48
2023-04-15T08:32:50.700Z,11.38
2023-04-15T08:33:37.881Z,11.21
2023-04-15T08:34:25.036Z,11.21
2023-04-15T08:35:12.236Z,11.31
2023-04-15T08:35:59.352Z,11.19
2023-04-15T08:36:46.906Z,11.14
2023-04-15T08:37:34.005Z,11.04
2023-04-15T08:38:21.286Z,11.00
2023-04-15T08:39:08.926Z,11.01
2023-04-15T08:39:55.961Z,11.09
2023-04-15T08:40:44.926Z,11.19
2023-04-15T08:41:42.071Z,11.07
2023-04-15T08:42:33.020Z,11.04
2023-04-15T08:43:26.845Z,10.49
2023-04-15T08:44:15.003Z,10.48
2023-04-15T08:45:04.959Z,10.63
2023-04-15T08:45:53.081Z,10.49
2023-04-15T08:46:40.302Z,10.57
2023-04-15T08:47:30.658Z,10.76
2023-04-15T08:48:18.085Z,10.94
2023-04-15T08:49:05.693Z,11.20
2023-04-15T08:49:54.535Z,11.21
2023-04-15T08:50:41.689Z,11.03
2023-04-15T08:51:29.524Z,10.88
2023-04-15T08:52:16.615Z,11.14
2023-04-15T08:53:03.756Z,11.34
2023-04-15T08:53:51.175Z,11.53
2023-04-15T08:54:39.072Z,11.45
2023-04-15T08:55:36.679Z,11.50
2023-04-15T08:56:26.443Z,11.39
2023-04-15T08:57:14.777Z,10.96
2023-04-15T08:58:03.136Z,11.28
2023-04-15T08:58:51.165Z,11.26
2023-04-15T08:59:38.181Z,11.18
2023-04-15T09:00:27.456Z,11.19
2023-04-15T09:01:14.705Z,11.12
2023-04-15T09:02:01.999Z,10.48
2023-04-15T09:02:49.223Z,10.28
2023-04-15T09:03:37.301Z,10.60
2023-04-15T09:04:24.483Z,10.78
2023-04-15T09:05:11.872Z,10.71
2023-04-15T09:05:59.565Z,10.82
2023-04-15T09:06:46.830Z,10.97
2023-04-15T09:07:36.922Z,11.08
2023-04-15T09:08:23.959Z,11.09
2023-04-15T09:09:11.120Z,11.00
2023-04-15T09:09:59.008Z,10.93
2023-04-15T09:10:45.972Z,10.91
2023-04-15T09:11:33.120Z,10.87
2023-04-15T09:12:20.157Z,10.78
2023-04-15T09:13:07.288Z,10.71
2023-04-15T09:13:54.653Z,10.81
2023-04-15T09:14:43.139Z,10.78
2023-04-15T09:15:30.930Z,10.72
2023-04-15T09:16:18.115Z,10.79
2023-04-15T09:17:05.822Z,10.89
2023-04-15T09:17:52.873Z,11.02
2023-04-15T09:18:40.161Z,11.04
2023-04-15T09:19:28.167Z,11.16
2023-04-15T09:20:16.967Z,11.08
2023-04-15T09:21:12.531Z,11.26
2023-04-15T09:22:00.146Z,11.38
2023-04-15T09:22:48.894Z,11.40
2023-04-15T09:23:36.572Z,11.40
2023-04-15T09:24:23.973Z,11.54
2023-04-15T09:25:23.232Z,11.65
2023-04-15T09:26:10.429Z,11.65
2023-04-15T09:26:58.964Z,11.73
2023-04-15T09:27:50.309Z,11.55
2023-04-15T09:28:44.073Z,11.47
2023-04-15T09:29:31.737Z,11.54
2023-04-15T09:30:20.446Z,11.51
2023-04-15T09:31:08.680Z,11.54
2023-04-15T09:31:56.166Z,11.64
2023-04-15T09:32:53.836Z,11.51
2023-04-15T09:33:59.105Z,11.44
2023-04-15T09:34:46.407Z,11.30
2023-04-15T09:35:33.713Z,11.28
2023-04-15T09:36:21.004Z,11.48
2023-04-15T09:37:08.286Z,10.76
2023-04-15T09:38:04.438Z,10.89
2023-04-15T09:39:01.430Z,10.93
2023-04-15T09:39:53.371Z,10.89
2023-04-15T09:40:42.677Z,10.99
2023-04-15T09:41:29.955Z,11.08
2023-04-15T09:42:18.128Z,11.23
2023-04-15T09:43:06.849Z,11.36
2023-04-15T09:43:54.109Z,11.33
2023-04-15T09:44:41.322Z,11.43
2023-04-15T09:45:29.790Z,11.52
2023-04-15T09:46:17.539Z,11.49
2023-04-15T09:47:04.713Z,11.40
2023-04-15T09:47:52.694Z,11.43
2023-04-15T09:48:40.822Z,11.42
2023-04-15T09:49:28.540Z,11.47
2023-04-15T09:50:15.824Z,11.37
2023-04-15T09:51:03.041Z,11.34
2023-04-15T09:52:01.679Z,11.03
2023-04-15T09:52:52.521Z,11.24
2023-04-15T09:53:39.780Z,11.49
2023-04-15T09:54:34.074Z,11.54
2023-04-15T09:55:21.377Z,11.59
2023-04-15T09:56:09.451Z,11.45
2023-04-15T09:56:57.094Z,11.50
2023-04-15T09:57:50.113Z,11.38
2023-04-15T09:58:39.088Z,11.33
2023-04-15T09:59:26.566Z,11.72
2023-04-15T10:00:14.428Z,11.84
2023-04-15T10:01:06.987Z,11.96
2023-04-15T10:01:54.107Z,11.52
2023-04-15T10:02:45.318Z,11.69
2023-04-15T10:03:38.226Z,11.84
2023-04-15T10:04:26.102Z,12.13
2023-04-15T10:05:15.557Z,12.22
2023-04-15T10:06:03.865Z,12.36
2023-04-15T10:06:51.299Z,12.34
2023-04-15T10:07:41.417Z,12.56
2023-04-15T10:08:31.198Z,12.58
2023-04-15T10:09:18.405Z,12.68
2023-04-15T10:10:06.324Z,12.76
2023-04-15T10:10:54.387Z,12.69
2023-04-15T10:11:43.874Z,12.92
2023-04-15T10:12:34.057Z,12.86
2023-04-15T10:13:24.541Z,13.00
2023-04-15T10:14:12.184Z,13.21
2023-04-15T10:15:02.833Z,13.38
2023-04-15T10:16:03.431Z,13.45
2023-04-15T10:16:53.477Z,13.41
2023-04-15T10:17:45.052Z,13.46
2023-04-15T10:18:37.458Z,13.45
2023-04-15T10:19:30.637Z,13.55
2023-04-15T10:20:18.979Z,13.60
2023-04-15T10:21:06.996Z,13.71
2023-04-15T10:21:55.617Z,13.82
2023-04-15T10:22:43.139Z,13.93
2023-04-15T10:23:31.146Z,13.87
2023-04-15T10:24:18.974Z,13.84
2023-04-15T10:25:07.631Z,14.06
2023-04-15T10:25:55.764Z,14.13
2023-04-15T10:26:44.391Z,14.29
2023-04-15T10:27:32.465Z,13.93
2023-04-15T10:28:21.050Z,14.22
2023-04-15T10:29:09.114Z,14.29
2023-04-15T10:29:58.022Z,14.10
2023-04-15T10:30:46.977Z,14.06
2023-04-15T10:31:34.666Z,13.84